sensor_id;sensor_type;location;lat;lon;timestamp;pressure;altitude;pressure_sealevel;temperature;humidity
33075;BME280;19433;51.292;6.868;2023-05-20T00:00:05;101070.56;;;11.42;77.02
33075;BME280;19433;51.292;6.868;2023-05-20T00:02:30;101059.22;;;11.37;77.61
33075;BME280;19433;51.292;6.868;2023-05-20T00:04:56;101066.59;;;11.30;77.11
33075;BME280;19433;51.292;6.868;2023-05-20T00:07:21;101066.47;;;11.38;77.77
33075;BME280;19433;51.292;6.868;2023-05-20T00:09:46;101069.47;;;11.21;78.33
33075;BME280;19433;51.292;6.868;2023-05-20T00:12:12;101076.63;;;11.16;79.41
33075;BME280;19433;51.292;6.868;2023-05-20T00:14:37;101071.38;;;11.21;80.05
33075;BME280;19433;51.292;6.868;2023-05-20T00:17:02;101076.53;;;11.09;79.42
33075;BME280;19433;51.292;6.868;2023-05-20T00:19:28;101071.97;;;11.02;80.42
33075;BME280;19433;51.292;6.868;2023-05-20T00:21:53;101067.97;;;11.04;79.98
33075;BME280;19433;51.292;6.868;2023-05-20T00:24:18;101072.81;;;11.02;79.45
33075;BME280;19433;51.292;6.868;2023-05-20T00:26:43;101086.94;;;11.07;80.38
33075;BME280;19433;51.292;6.868;2023-05-20T00:29:09;101088.47;;;10.95;80.72
33075;BME280;19433;51.292;6.868;2023-05-20T00:31:34;101069.72;;;10.76;81.52
33075;BME280;19433;51.292;6.868;2023-05-20T00:34:00;101072.41;;;10.69;82.08
33075;BME280;19433;51.292;6.868;2023-05-20T00:36:25;101078.09;;;10.82;82.20
33075;BME280;19433;51.292;6.868;2023-05-20T00:38:51;101078.84;;;10.91;83.39
33075;BME280;19433;51.292;6.868;2023-05-20T00:41:16;101070.94;;;10.73;83.21
33075;BME280;19433;51.292;6.868;2023-05-20T00:43:42;101075.34;;;10.53;82.92
33075;BME280;19433;51.292;6.868;2023-05-20T00:46:07;101072.56;;;10.38;84.00
33075;BME280;19433;51.292;6.868;2023-05-20T00:48:39;101069.81;;;10.53;84.87
33075;BME280;19433;51.292;6.868;2023-05-20T00:51:05;101071.78;;;10.44;84.03
33075;BME280;19433;51.292;6.868;2023-05-20T00:53:32;101068.97;;;10.52;84.56
33075;BME280;19433;51.292;6.868;2023-05-20T00:55:58;101063.50;;;10.44;84.00
33075;BME280;19433;51.292;6.868;2023-05-20T00:58:23;101075.91;;;10.48;84.10
33075;BME280;19433;51.292;6.868;2023-05-20T01:00:49;101066.75;;;10.48;84.56
33075;BME280;19433;51.292;6.868;2023-05-20T01:03:14;101065.88;;;10.33;84.26
33075;BME280;19433;51.292;6.868;2023-05-20T01:05:39;101057.31;;;10.42;86.21
33075;BME280;19433;51.292;6.868;2023-05-20T01:08:05;101068.53;;;10.41;85.41
33075;BME280;19433;51.292;6.868;2023-05-20T01:10:31;101056.75;;;10.47;85.13
33075;BME280;19433;51.292;6.868;2023-05-20T01:13:00;101050.34;;;10.32;85.90
33075;BME280;19433;51.292;6.868;2023-05-20T01:15:28;101052.53;;;10.21;85.23
33075;BME280;19433;51.292;6.868;2023-05-20T01:17:57;101058.25;;;10.20;87.30
33075;BME280;19433;51.292;6.868;2023-05-20T01:20:27;101061.72;;;10.14;86.96
33075;BME280;19433;51.292;6.868;2023-05-20T01:22:55;101067.00;;;10.23;86.45
33075;BME280;19433;51.292;6.868;2023-05-20T01:25:21;101064.47;;;10.37;86.30
33075;BME280;19433;51.292;6.868;2023-05-20T01:27:47;101060.81;;;10.21;86.36
33075;BME280;19433;51.292;6.868;2023-05-20T01:30:13;101054.66;;;10.34;87.01
33075;BME280;19433;51.292;6.868;2023-05-20T01:32:47;101044.75;;;10.02;86.87
33075;BME280;19433;51.292;6.868;2023-05-20T01:35:15;101050.25;;;10.25;88.17
33075;BME280;19433;51.292;6.868;2023-05-20T01:37:41;101053.31;;;10.30;86.94
33075;BME280;19433;51.292;6.868;2023-05-20T01:40:08;101041.78;;;10.27;87.74
33075;BME280;19433;51.292;6.868;2023-05-20T01:42:36;101045.75;;;10.24;87.37
33075;BME280;19433;51.292;6.868;2023-05-20T01:45:03;101040.63;;;10.21;87.21
33075;BME280;19433;51.292;6.868;2023-05-20T01:47:28;101035.91;;;10.07;88.20
33075;BME280;19433;51.292;6.868;2023-05-20T01:49:54;101034.97;;;10.14;88.29
33075;BME280;19433;51.292;6.868;2023-05-20T01:52:20;101038.84;;;9.91;89.17
33075;BME280;19433;51.292;6.868;2023-05-20T01:54:46;101040.06;;;9.88;90.11
33075;BME280;19433;51.292;6.868;2023-05-20T01:57:17;101039.06;;;9.81;89.61
33075;BME280;19433;51.292;6.868;2023-05-20T01:59:42;101030.13;;;9.79;90.30
33075;BME280;19433;51.292;6.868;2023-05-20T02:02:08;101039.09;;;9.96;90.03
33075;BME280;19433;51.292;6.868;2023-05-20T02:04:34;101040.16;;;9.95;89.66
33075;BME280;19433;51.292;6.868;2023-05-20T02:06:59;101032.59;;;9.74;90.49
33075;BME280;19433;51.292;6.868;2023-05-20T02:09:25;101028.16;;;9.65;90.81
33075;BME280;19433;51.292;6.868;2023-05-20T02:11:51;101029.00;;;9.88;90.67
33075;BME280;19433;51.292;6.868;2023-05-20T02:14:16;101028.53;;;9.84;90.39
33075;BME280;19433;51.292;6.868;2023-05-20T02:16:41;101029.38;;;9.85;91.14
33075;BME280;19433;51.292;6.868;2023-05-20T02:19:07;101033.56;;;9.81;92.27
33075;BME280;19433;51.292;6.868;2023-05-20T02:21:41;101039.19;;;9.65;91.64
33075;BME280;19433;51.292;6.868;2023-05-20T02:24:06;101029.53;;;9.69;91.69
33075;BME280;19433;51.292;6.868;2023-05-20T02:26:35;101033.28;;;9.76;92.05
33075;BME280;19433;51.292;6.868;2023-05-20T02:29:00;101037.13;;;9.67;92.07
33075;BME280;19433;51.292;6.868;2023-05-20T02:31:25;101031.44;;;9.45;92.30
33075;BME280;19433;51.292;6.868;2023-05-20T02:33:51;101031.72;;;9.50;93.46
33075;BME280;19433;51.292;6.868;2023-05-20T02:36:16;101033.09;;;9.55;92.73
33075;BME280;19433;51.292;6.868;2023-05-20T02:38:42;101028.88;;;9.44;92.85
33075;BME280;19433;51.292;6.868;2023-05-20T02:41:07;101020.81;;;9.34;93.33
33075;BME280;19433;51.292;6.868;2023-05-20T02:43:33;101030.75;;;9.43;93.45
33075;BME280;19433;51.292;6.868;2023-05-20T02:45:58;101027.34;;;9.41;93.07
33075;BME280;19433;51.292;6.868;2023-05-20T02:48:23;101003.97;;;9.29;93.52
33075;BME280;19433;51.292;6.868;2023-05-20T02:50:49;101008.94;;;9.34;93.50
33075;BME280;19433;51.292;6.868;2023-05-20T02:53:14;101010.03;;;9.25;94.12
33075;BME280;19433;51.292;6.868;2023-05-20T02:55:40;101002.31;;;9.20;93.92
33075;BME280;19433;51.292;6.868;2023-05-20T02:58:05;101017.44;;;9.24;94.59
33075;BME280;19433;51.292;6.868;2023-05-20T03:00:30;100994.66;;;9.07;95.08
33075;BME280;19433;51.292;6.868;2023-05-20T03:02:56;100992.50;;;9.17;93.90
33075;BME280;19433;51.292;6.868;2023-05-20T03:05:22;101009.97;;;9.33;94.19
33075;BME280;19433;51.292;6.868;2023-05-20T03:07:48;100994.03;;;9.20;93.52
33075;BME280;19433;51.292;6.868;2023-05-20T03:10:14;101008.47;;;9.30;94.93
33075;BME280;19433;51.292;6.868;2023-05-20T03:12:40;101007.16;;;9.41;93.53
33075;BME280;19433;51.292;6.868;2023-05-20T03:15:05;101005.53;;;9.32;94.28
33075;BME280;19433;51.292;6.868;2023-05-20T03:17:31;100986.41;;;9.30;93.95
33075;BME280;19433;51.292;6.868;2023-05-20T03:19:56;100999.72;;;9.18;94.04
33075;BME280;19433;51.292;6.868;2023-05-20T03:22:21;101003.16;;;9.21;94.11
33075;BME280;19433;51.292;6.868;2023-05-20T03:24:47;100994.09;;;9.12;95.03
33075;BME280;19433;51.292;6.868;2023-05-20T03:27:12;101002.94;;;9.30;94.10
33075;BME280;19433;51.292;6.868;2023-05-20T03:29:38;100996.13;;;9.18;94.47
33075;BME280;19433;51.292;6.868;2023-05-20T03:32:03;100991.16;;;9.13;94.69
33075;BME280;19433;51.292;6.868;2023-05-20T03:34:28;100997.53;;;9.14;95.22
33075;BME280;19433;51.292;6.868;2023-05-20T03:36:54;101000.16;;;9.07;95.35
33075;BME280;19433;51.292;6.868;2023-05-20T03:39:19;100995.00;;;9.04;95.08
33075;BME280;19433;51.292;6.868;2023-05-20T03:41:45;100999.13;;;9.08;95.35
33075;BME280;19433;51.292;6.868;2023-05-20T03:44:10;100982.59;;;9.08;94.60
33075;BME280;19433;51.292;6.868;2023-05-20T03:46:35;100978.44;;;9.12;94.70
33075;BME280;19433;51.292;6.868;2023-05-20T03:49:01;100982.72;;;9.15;95.39
33075;BME280;19433;51.292;6.868;2023-05-20T03:51:26;100983.63;;;9.07;94.32
33075;BME280;19433;51.292;6.868;2023-05-20T03:53:52;100984.06;;;9.19;94.15
33075;BME280;19433;51.292;6.868;2023-05-20T03:56:17;100973.69;;;9.21;94.77
33075;BME280;19433;51.292;6.868;2023-05-20T03:58:42;100971.50;;;9.16;94.30
33075;BME280;19433;51.292;6.868;2023-05-20T04:01:08;100987.19;;;9.16;94.47
33075;BME280;19433;51.292;6.868;2023-05-20T04:03:33;100975.09;;;9.17;93.53
33075;BME280;19433;51.292;6.868;2023-05-20T04:05:58;100986.63;;;9.21;93.82
33075;BME280;19433;51.292;6.868;2023-05-20T04:08:24;100987.31;;;9.23;93.14
33075;BME280;19433;51.292;6.868;2023-05-20T04:10:55;100994.59;;;9.38;93.05
33075;BME280;19433;51.292;6.868;2023-05-20T04:13:21;100986.94;;;9.48;92.45
33075;BME280;19433;51.292;6.868;2023-05-20T04:15:47;100987.31;;;9.45;93.79
33075;BME280;19433;51.292;6.868;2023-05-20T04:18:12;100979.31;;;9.50;93.45
33075;BME280;19433;51.292;6.868;2023-05-20T04:20:38;100973.25;;;9.55;91.46
33075;BME280;19433;51.292;6.868;2023-05-20T04:23:05;100977.19;;;9.61;92.20
33075;BME280;19433;51.292;6.868;2023-05-20T04:25:30;100987.59;;;9.73;90.78
33075;BME280;19433;51.292;6.868;2023-05-20T04:27:56;100978.66;;;9.86;90.90
33075;BME280;19433;51.292;6.868;2023-05-20T04:30:21;100978.34;;;9.81;90.72
33075;BME280;19433;51.292;6.868;2023-05-20T04:32:48;100969.41;;;9.79;90.74
33075;BME280;19433;51.292;6.868;2023-05-20T04:35:14;100972.47;;;9.84;89.93
33075;BME280;19433;51.292;6.868;2023-05-20T04:37:40;100962.13;;;10.01;90.48
33075;BME280;19433;51.292;6.868;2023-05-20T04:40:07;100973.16;;;10.01;90.48
33075;BME280;19433;51.292;6.868;2023-05-20T04:42:33;100963.94;;;10.08;90.32
33075;BME280;19433;51.292;6.868;2023-05-20T04:44:58;100971.94;;;10.18;89.15
33075;BME280;19433;51.292;6.868;2023-05-20T04:47:28;100987.84;;;10.16;90.66
33075;BME280;19433;51.292;6.868;2023-05-20T04:49:55;100983.78;;;10.41;88.08
33075;BME280;19433;51.292;6.868;2023-05-20T04:52:23;100985.13;;;10.31;88.20
33075;BME280;19433;51.292;6.868;2023-05-20T04:54:49;100986.34;;;10.28;87.43
33075;BME280;19433;51.292;6.868;2023-05-20T04:57:15;100978.38;;;10.33;88.15
33075;BME280;19433;51.292;6.868;2023-05-20T04:59:41;100983.09;;;10.25;88.90
33075;BME280;19433;51.292;6.868;2023-05-20T05:02:06;100964.63;;;10.25;89.05
33075;BME280;19433;51.292;6.868;2023-05-20T05:04:32;100987.03;;;10.45;87.96
33075;BME280;19433;51.292;6.868;2023-05-20T05:06:57;100980.16;;;10.41;88.38
33075;BME280;19433;51.292;6.868;2023-05-20T05:09:22;100974.56;;;10.49;87.41
33075;BME280;19433;51.292;6.868;2023-05-20T05:11:48;100979.19;;;10.63;87.11
33075;BME280;19433;51.292;6.868;2023-05-20T05:14:13;100966.63;;;10.61;86.81
33075;BME280;19433;51.292;6.868;2023-05-20T05:16:38;100961.00;;;10.69;87.50
33075;BME280;19433;51.292;6.868;2023-05-20T05:19:04;100957.00;;;10.56;87.71
33075;BME280;19433;51.292;6.868;2023-05-20T05:21:29;100955.09;;;10.57;87.33
33075;BME280;19433;51.292;6.868;2023-05-20T05:23:56;100977.56;;;10.83;87.17
33075;BME280;19433;51.292;6.868;2023-05-20T05:26:22;100969.50;;;10.88;86.85
33075;BME280;19433;51.292;6.868;2023-05-20T05:28:47;100951.16;;;11.02;86.14
33075;BME280;19433;51.292;6.868;2023-05-20T05:31:12;100955.41;;;10.98;85.99
33075;BME280;19433;51.292;6.868;2023-05-20T05:33:37;100954.22;;;11.07;85.31
33075;BME280;19433;51.292;6.868;2023-05-20T05:36:03;100949.34;;;11.09;85.59
33075;BME280;19433;51.292;6.868;2023-05-20T05:38:30;100954.34;;;11.20;85.03
33075;BME280;19433;51.292;6.868;2023-05-20T05:40:55;100957.50;;;11.17;85.45
33075;BME280;19433;51.292;6.868;2023-05-20T05:43:21;100952.97;;;11.31;86.11
33075;BME280;19433;51.292;6.868;2023-05-20T05:45:46;100949.03;;;11.40;84.69
33075;BME280;19433;51.292;6.868;2023-05-20T05:48:11;100939.78;;;11.54;84.11
33075;BME280;19433;51.292;6.868;2023-05-20T05:50:37;100945.53;;;11.53;83.28
33075;BME280;19433;51.292;6.868;2023-05-20T05:53:02;100948.81;;;11.84;82.71
33075;BME280;19433;51.292;6.868;2023-05-20T05:55:27;100943.84;;;11.80;82.86
33075;BME280;19433;51.292;6.868;2023-05-20T05:57:53;100933.25;;;11.83;83.70
33075;BME280;19433;51.292;6.868;2023-05-20T06:00:18;100940.13;;;11.94;82.11
33075;BME280;19433;51.292;6.868;2023-05-20T06:02:44;100933.41;;;12.03;83.53
33075;BME280;19433;51.292;6.868;2023-05-20T06:05:09;100930.97;;;12.21;81.99
33075;BME280;19433;51.292;6.868;2023-05-20T06:07:35;100946.63;;;12.42;81.16
33075;BME280;19433;51.292;6.868;2023-05-20T06:10:00;100932.56;;;12.44;81.89
33075;BME280;19433;51.292;6.868;2023-05-20T06:12:26;100945.41;;;12.51;81.46
33075;BME280;19433;51.292;6.868;2023-05-20T06:14:51;100942.19;;;12.48;79.38
33075;BME280;19433;51.292;6.868;2023-05-20T06:17:16;100941.59;;;12.59;80.55
33075;BME280;19433;51.292;6.868;2023-05-20T06:19:41;100930.56;;;12.72;78.75
33075;BME280;19433;51.292;6.868;2023-05-20T06:22:07;100922.69;;;12.76;79.23
33075;BME280;19433;51.292;6.868;2023-05-20T06:24:33;100933.69;;;13.17;78.00
33075;BME280;19433;51.292;6.868;2023-05-20T06:26:58;100932.44;;;13.19;77.66
33075;BME280;19433;51.292;6.868;2023-05-20T06:29:23;100939.72;;;13.40;77.41
33075;BME280;19433;51.292;6.868;2023-05-20T06:31:49;100938.03;;;13.98;74.63
33075;BME280;19433;51.292;6.868;2023-05-20T06:34:14;100936.00;;;14.52;71.30
33075;BME280;19433;51.292;6.868;2023-05-20T06:36:39;100935.94;;;14.71;71.09
33075;BME280;19433;51.292;6.868;2023-05-20T06:39:05;100931.91;;;15.05;69.39
33075;BME280;19433;51.292;6.868;2023-05-20T06:41:36;100943.72;;;15.70;66.31
33075;BME280;19433;51.292;6.868;2023-05-20T06:44:01;100939.16;;;16.80;66.13
33075;BME280;19433;51.292;6.868;2023-05-20T06:46:27;100936.41;;;17.82;59.09
33075;BME280;19433;51.292;6.868;2023-05-20T06:48:52;100945.31;;;19.01;54.94
33075;BME280;19433;51.292;6.868;2023-05-20T06:51:17;100940.31;;;19.03;52.57
33075;BME280;19433;51.292;6.868;2023-05-20T06:53:42;100945.19;;;18.09;53.30
33075;BME280;19433;51.292;6.868;2023-05-20T06:56:08;100943.28;;;16.78;58.72
33075;BME280;19433;51.292;6.868;2023-05-20T06:58:33;100934.28;;;16.94;60.20
33075;BME280;19433;51.292;6.868;2023-05-20T07:00:58;100941.16;;;17.81;58.59
33075;BME280;19433;51.292;6.868;2023-05-20T07:03:24;100941.31;;;17.27;56.39
33075;BME280;19433;51.292;6.868;2023-05-20T07:05:50;100945.38;;;19.46;50.19
33075;BME280;19433;51.292;6.868;2023-05-20T07:08:15;100940.69;;;19.63;50.46
33075;BME280;19433;51.292;6.868;2023-05-20T07:10:40;100948.19;;;18.77;52.57
33075;BME280;19433;51.292;6.868;2023-05-20T07:13:05;100956.00;;;16.74;56.98
33075;BME280;19433;51.292;6.868;2023-05-20T07:15:31;100941.44;;;15.86;62.45
33075;BME280;19433;51.292;6.868;2023-05-20T07:17:56;100937.28;;;15.38;65.93
33075;BME280;19433;51.292;6.868;2023-05-20T07:20:21;100928.25;;;15.11;66.98
33075;BME280;19433;51.292;6.868;2023-05-20T07:22:47;100927.56;;;14.78;68.13
33075;BME280;19433;51.292;6.868;2023-05-20T07:25:14;100930.00;;;14.99;69.63
33075;BME280;19433;51.292;6.868;2023-05-20T07:27:40;100911.47;;;14.87;69.01
33075;BME280;19433;51.292;6.868;2023-05-20T07:30:05;100930.16;;;14.73;68.31
33075;BME280;19433;51.292;6.868;2023-05-20T07:32:31;100921.59;;;14.74;69.42
33075;BME280;19433;51.292;6.868;2023-05-20T07:34:56;100934.25;;;15.08;69.04
33075;BME280;19433;51.292;6.868;2023-05-20T07:37:22;100927.69;;;14.45;69.60
33075;BME280;19433;51.292;6.868;2023-05-20T07:39:47;100926.56;;;14.66;70.62
33075;BME280;19433;51.292;6.868;2023-05-20T07:42:12;100928.94;;;15.00;69.53
33075;BME280;19433;51.292;6.868;2023-05-20T07:44:37;100918.00;;;15.05;70.01
33075;BME280;19433;51.292;6.868;2023-05-20T07:47:03;100924.13;;;15.21;68.29
33075;BME280;19433;51.292;6.868;2023-05-20T07:49:28;100924.75;;;15.23;70.03
33075;BME280;19433;51.292;6.868;2023-05-20T07:51:53;100918.66;;;15.39;70.92
33075;BME280;19433;51.292;6.868;2023-05-20T07:54:19;100930.75;;;15.58;67.27
33075;BME280;19433;51.292;6.868;2023-05-20T07:56:44;100919.59;;;15.26;68.07
33075;BME280;19433;51.292;6.868;2023-05-20T07:59:10;100933.31;;;15.53;68.96
33075;BME280;19433;51.292;6.868;2023-05-20T08:01:35;100925.34;;;15.63;66.20
33075;BME280;19433;51.292;6.868;2023-05-20T08:04:01;100924.03;;;15.65;68.77
33075;BME280;19433;51.292;6.868;2023-05-20T08:06:27;100920.16;;;15.91;65.96
33075;BME280;19433;51.292;6.868;2023-05-20T08:08:52;100921.22;;;16.15;67.40
33075;BME280;19433;51.292;6.868;2023-05-20T08:11:18;100909.91;;;16.10;65.90
33075;BME280;19433;51.292;6.868;2023-05-20T08:13:43;100920.53;;;16.38;65.69
33075;BME280;19433;51.292;6.868;2023-05-20T08:16:09;100920.00;;;16.47;64.87
33075;BME280;19433;51.292;6.868;2023-05-20T08:18:34;100923.78;;;15.92;65.18
33075;BME280;19433;51.292;6.868;2023-05-20T08:21:04;100922.50;;;15.69;66.68
33075;BME280;19433;51.292;6.868;2023-05-20T08:23:30;100915.13;;;15.50;67.47
33075;BME280;19433;51.292;6.868;2023-05-20T08:25:55;100916.06;;;16.18;66.73
33075;BME280;19433;51.292;6.868;2023-05-20T08:28:21;100918.16;;;16.60;69.88
33075;BME280;19433;51.292;6.868;2023-05-20T08:30:47;100919.84;;;16.42;66.72
33075;BME280;19433;51.292;6.868;2023-05-20T08:33:13;100920.81;;;16.73;63.55
33075;BME280;19433;51.292;6.868;2023-05-20T08:35:38;100914.97;;;16.38;64.81
33075;BME280;19433;51.292;6.868;2023-05-20T08:38:05;100909.84;;;17.19;62.72
33075;BME280;19433;51.292;6.868;2023-05-20T08:40:30;100906.06;;;17.14;62.85
33075;BME280;19433;51.292;6.868;2023-05-20T08:42:56;100918.09;;;17.56;62.41
33075;BME280;19433;51.292;6.868;2023-05-20T08:45:24;100905.78;;;17.34;62.87
33075;BME280;19433;51.292;6.868;2023-05-20T08:47:52;100921.25;;;17.59;61.10
33075;BME280;19433;51.292;6.868;2023-05-20T08:50:18;100904.31;;;18.31;57.98
33075;BME280;19433;51.292;6.868;2023-05-20T08:52:45;100905.75;;;18.45;58.12
33075;BME280;19433;51.292;6.868;2023-05-20T08:55:14;100914.66;;;18.19;58.77
33075;BME280;19433;51.292;6.868;2023-05-20T08:57:41;100906.59;;;17.22;60.02
33075;BME280;19433;51.292;6.868;2023-05-20T09:00:11;100906.22;;;18.54;58.60
33075;BME280;19433;51.292;6.868;2023-05-20T09:02:38;100918.69;;;19.55;53.81
33075;BME280;19433;51.292;6.868;2023-05-20T09:05:04;100918.47;;;19.16;54.05
33075;BME280;19433;51.292;6.868;2023-05-20T09:07:30;100918.75;;;18.75;54.33
33075;BME280;19433;51.292;6.868;2023-05-20T09:09:56;100908.91;;;18.37;55.79
33075;BME280;19433;51.292;6.868;2023-05-20T09:12:21;100907.47;;;18.46;56.53
33075;BME280;19433;51.292;6.868;2023-05-20T09:14:46;100913.03;;;18.70;56.61
33075;BME280;19433;51.292;6.868;2023-05-20T09:17:12;100910.41;;;18.28;55.68
33075;BME280;19433;51.292;6.868;2023-05-20T09:19:38;100924.63;;;17.91;58.02
33075;BME280;19433;51.292;6.868;2023-05-20T09:22:03;100907.47;;;18.23;57.86
33075;BME280;19433;51.292;6.868;2023-05-20T09:24:29;100908.81;;;17.97;57.09
33075;BME280;19433;51.292;6.868;2023-05-20T09:26:55;100913.81;;;18.30;60.20
33075;BME280;19433;51.292;6.868;2023-05-20T09:29:22;100923.63;;;19.08;54.81
33075;BME280;19433;51.292;6.868;2023-05-20T09:31:48;100909.50;;;18.51;56.67
33075;BME280;19433;51.292;6.868;2023-05-20T09:34:15;100918.59;;;19.10;55.13
33075;BME280;19433;51.292;6.868;2023-05-20T09:36:42;100921.63;;;18.91;56.12
33075;BME280;19433;51.292;6.868;2023-05-20T09:39:12;100946.28;;;19.06;56.32
33075;BME280;19433;51.292;6.868;2023-05-20T09:41:48;100921.91;;;18.78;57.48
33075;BME280;19433;51.292;6.868;2023-05-20T09:44:15;100930.47;;;18.60;55.47
33075;BME280;19433;51.292;6.868;2023-05-20T09:46:41;100926.69;;;18.31;59.27
33075;BME280;19433;51.292;6.868;2023-05-20T09:49:08;100913.03;;;17.65;59.13
33075;BME280;19433;51.292;6.868;2023-05-20T09:51:34;100915.97;;;17.70;59.30
33075;BME280;19433;51.292;6.868;2023-05-20T09:54:01;100918.34;;;18.83;61.02
33075;BME280;19433;51.292;6.868;2023-05-20T09:56:28;100924.22;;;20.00;56.37
33075;BME280;19433;51.292;6.868;2023-05-20T09:58:54;100922.06;;;19.28;56.09
33075;BME280;19433;51.292;6.868;2023-05-20T10:01:22;100925.16;;;19.15;55.35
33075;BME280;19433;51.292;6.868;2023-05-20T10:03:48;100917.00;;;19.14;54.53
33075;BME280;19433;51.292;6.868;2023-05-20T10:09:17;100929.88;;;19.72;54.95
33075;BME280;19433;51.292;6.868;2023-05-20T10:12:17;100915.78;;;18.93;57.00
33075;BME280;19433;51.292;6.868;2023-05-20T10:15:12;100905.84;;;18.74;58.64
33075;BME280;19433;51.292;6.868;2023-05-20T10:20:11;100921.22;;;20.07;56.77
33075;BME280;19433;51.292;6.868;2023-05-20T10:22:37;100914.72;;;19.11;54.31
33075;BME280;19433;51.292;6.868;2023-05-20T10:25:11;100916.38;;;19.52;53.43
33075;BME280;19433;51.292;6.868;2023-05-20T10:27:44;100912.34;;;18.63;56.39
33075;BME280;19433;51.292;6.868;2023-05-20T10:30:17;100887.56;;;17.84;59.45
33075;BME280;19433;51.292;6.868;2023-05-20T10:32:57;100897.34;;;18.97;58.61
33075;BME280;19433;51.292;6.868;2023-05-20T10:35:26;100906.56;;;19.38;56.95
33075;BME280;19433;51.292;6.868;2023-05-20T10:37:54;100908.06;;;18.48;56.45
33075;BME280;19433;51.292;6.868;2023-05-20T10:40:21;100916.75;;;18.00;59.00
33075;BME280;19433;51.292;6.868;2023-05-20T10:42:47;100910.41;;;18.05;60.71
33075;BME280;19433;51.292;6.868;2023-05-20T10:45:28;100916.69;;;17.65;60.88
33075;BME280;19433;51.292;6.868;2023-05-20T10:47:55;100907.38;;;17.95;62.00
33075;BME280;19433;51.292;6.868;2023-05-20T10:50:27;100901.31;;;17.14;63.18
33075;BME280;19433;51.292;6.868;2023-05-20T10:52:53;100909.88;;;17.73;63.28
33075;BME280;19433;51.292;6.868;2023-05-20T10:55:21;100912.88;;;17.59;61.81
33075;BME280;19433;51.292;6.868;2023-05-20T10:57:46;100894.25;;;17.83;64.82
33075;BME280;19433;51.292;6.868;2023-05-20T11:00:12;100913.22;;;17.51;61.19
33075;BME280;19433;51.292;6.868;2023-05-20T11:02:39;100907.59;;;17.81;61.88
33075;BME280;19433;51.292;6.868;2023-05-20T11:05:05;100900.22;;;17.57;68.86
33075;BME280;19433;51.292;6.868;2023-05-20T11:07:35;100900.06;;;17.70;63.25
33075;BME280;19433;51.292;6.868;2023-05-20T11:10:00;100903.00;;;18.10;61.82
33075;BME280;19433;51.292;6.868;2023-05-20T11:12:26;100901.34;;;17.56;63.04
33075;BME280;19433;51.292;6.868;2023-05-20T11:14:52;100899.31;;;17.21;62.92
33075;BME280;19433;51.292;6.868;2023-05-20T11:17:19;100907.25;;;17.36;63.69
33075;BME280;19433;51.292;6.868;2023-05-20T11:19:45;100906.13;;;17.26;64.55
33075;BME280;19433;51.292;6.868;2023-05-20T11:22:11;100903.09;;;17.69;63.79
33075;BME280;19433;51.292;6.868;2023-05-20T11:24:36;100898.59;;;18.26;63.17
33075;BME280;19433;51.292;6.868;2023-05-20T11:27:02;100896.75;;;18.95;60.59
33075;BME280;19433;51.292;6.868;2023-05-20T11:29:29;100895.94;;;18.83;59.08
33075;BME280;19433;51.292;6.868;2023-05-20T11:31:56;100890.34;;;18.31;60.31
33075;BME280;19433;51.292;6.868;2023-05-20T11:34:22;100894.91;;;18.49;61.73
33075;BME280;19433;51.292;6.868;2023-05-20T11:36:54;100882.59;;;18.73;60.69
33075;BME280;19433;51.292;6.868;2023-05-20T11:39:20;100890.22;;;19.18;59.52
33075;BME280;19433;51.292;6.868;2023-05-20T11:41:46;100898.72;;;19.51;57.50
33075;BME280;19433;51.292;6.868;2023-05-20T11:44:12;100880.22;;;19.84;56.18
33075;BME280;19433;51.292;6.868;2023-05-20T11:46:45;100876.13;;;19.75;54.95
33075;BME280;19433;51.292;6.868;2023-05-20T11:49:12;100887.72;;;20.17;55.68
33075;BME280;19433;51.292;6.868;2023-05-20T11:51:37;100877.16;;;20.84;55.54
33075;BME280;19433;51.292;6.868;2023-05-20T11:54:05;100869.25;;;21.57;51.58
33075;BME280;19433;51.292;6.868;2023-05-20T11:56:35;100868.97;;;21.04;53.54
33075;BME280;19433;51.292;6.868;2023-05-20T11:59:04;100860.06;;;21.39;52.25
33075;BME280;19433;51.292;6.868;2023-05-20T12:01:31;100849.94;;;22.50;52.25
33075;BME280;19433;51.292;6.868;2023-05-20T12:04:07;100846.22;;;21.97;51.11
33075;BME280;19433;51.292;6.868;2023-05-20T12:06:33;100860.16;;;23.59;46.36
33075;BME280;19433;51.292;6.868;2023-05-20T12:09:00;100861.53;;;24.12;44.49
33075;BME280;19433;51.292;6.868;2023-05-20T12:11:36;100863.03;;;24.79;44.15
33075;BME280;19433;51.292;6.868;2023-05-20T12:14:03;100853.03;;;24.37;42.61
33075;BME280;19433;51.292;6.868;2023-05-20T12:16:30;100852.00;;;24.82;41.81
33075;BME280;19433;51.292;6.868;2023-05-20T12:18:57;100852.81;;;23.88;42.43
33075;BME280;19433;51.292;6.868;2023-05-20T12:21:22;100841.84;;;23.51;44.42
33075;BME280;19433;51.292;6.868;2023-05-20T12:23:47;100834.97;;;23.06;46.42
33075;BME280;19433;51.292;6.868;2023-05-20T12:26:13;100834.13;;;23.11;45.40
33075;BME280;19433;51.292;6.868;2023-05-20T12:28:38;100831.66;;;23.55;45.98
33075;BME280;19433;51.292;6.868;2023-05-20T12:31:04;100828.28;;;22.55;47.29
33075;BME280;19433;51.292;6.868;2023-05-20T12:33:30;100831.84;;;22.98;48.16
33075;BME280;19433;51.292;6.868;2023-05-20T12:35:55;100841.81;;;23.61;47.67
33075;BME280;19433;51.292;6.868;2023-05-20T12:38:20;100837.03;;;23.52;46.79
33075;BME280;19433;51.292;6.868;2023-05-20T12:40:46;100820.94;;;23.57;44.79
33075;BME280;19433;51.292;6.868;2023-05-20T12:43:11;100820.06;;;23.92;46.49
33075;BME280;19433;51.292;6.868;2023-05-20T12:45:36;100817.59;;;22.62;46.02
33075;BME280;19433;51.292;6.868;2023-05-20T12:48:03;100825.00;;;22.78;48.13
33075;BME280;19433;51.292;6.868;2023-05-20T12:50:28;100816.34;;;22.28;47.96
33075;BME280;19433;51.292;6.868;2023-05-20T12:52:53;100829.38;;;22.44;47.61